sensor_id;sensor_type;location;lat;lon;timestamp;temperature;humidity
16273;DHT22;8244;50.044;9.006;2022-07-06T00:03:01;19.80;79.50
16273;DHT22;8244;50.044;9.006;2022-07-06T00:08:03;19.70;79.90
16273;DHT22;8244;50.044;9.006;2022-07-06T00:13:07;19.70;80.40
16273;DHT22;8244;50.044;9.006;2022-07-06T00:18:08;19.60;81.10
16273;DHT22;8244;50.044;9.006;2022-07-06T00:23:10;19.50;81.70
16273;DHT22;8244;50.044;9.006;2022-07-06T00:28:13;19.30;82.10
16273;DHT22;8244;50.044;9.006;2022-07-06T00:33:15;19.20;82.40
16273;DHT22;8244;50.044;9.006;2022-07-06T00:38:17;19.00;82.80
16273;DHT22;8244;50.044;9.006;2022-07-06T00:43:20;18.90;83.50
16273;DHT22;8244;50.044;9.006;2022-07-06T00:48:22;18.70;84.20
16273;DHT22;8244;50.044;9.006;2022-07-06T00:53:24;18.60;85.00
16273;DHT22;8244;50.044;9.006;2022-07-06T00:58:27;18.40;85.60
16273;DHT22;8244;50.044;9.006;2022-07-06T01:03:29;18.20;86.30
16273;DHT22;8244;50.044;9.006;2022-07-06T01:08:31;18.10;87.20
16273;DHT22;8244;50.044;9.006;2022-07-06T01:13:34;17.90;88.00
16273;DHT22;8244;50.044;9.006;2022-07-06T01:18:36;17.80;88.20
16273;DHT22;8244;50.044;9.006;2022-07-06T01:23:41;17.70;88.80
16273;DHT22;8244;50.044;9.006;2022-07-06T01:28:43;17.60;89.80
16273;DHT22;8244;50.044;9.006;2022-07-06T01:33:45;17.50;90.10
16273;DHT22;8244;50.044;9.006;2022-07-06T01:38:49;17.40;90.40
16273;DHT22;8244;50.044;9.006;2022-07-06T01:43:52;17.20;90.70
16273;DHT22;8244;50.044;9.006;2022-07-06T01:48:53;17.20;91.10
16273;DHT22;8244;50.044;9.006;2022-07-06T01:53:57;17.10;91.40
16273;DHT22;8244;50.044;9.006;2022-07-06T01:58:59;17.00;91.80
16273;DHT22;8244;50.044;9.006;2022-07-06T02:04:00;16.90;92.00
16273;DHT22;8244;50.044;9.006;2022-07-06T02:09:04;16.80;92.20
16273;DHT22;8244;50.044;9.006;2022-07-06T02:14:05;16.80;92.60
16273;DHT22;8244;50.044;9.006;2022-07-06T02:19:07;16.70;93.00
16273;DHT22;8244;50.044;9.006;2022-07-06T02:24:10;16.60;93.30
16273;DHT22;8244;50.044;9.006;2022-07-06T02:29:12;16.50;93.60
16273;DHT22;8244;50.044;9.006;2022-07-06T02:34:13;16.40;93.90
16273;DHT22;8244;50.044;9.006;2022-07-06T02:39:17;16.30;94.30
16273;DHT22;8244;50.044;9.006;2022-07-06T02:44:18;16.20;94.70
16273;DHT22;8244;50.044;9.006;2022-07-06T02:49:20;16.20;94.90
16273;DHT22;8244;50.044;9.006;2022-07-06T02:54:23;16.10;95.50
16273;DHT22;8244;50.044;9.006;2022-07-06T02:59:25;16.10;96.00
16273;DHT22;8244;50.044;9.006;2022-07-06T03:04:26;16.00;96.40
16273;DHT22;8244;50.044;9.006;2022-07-06T03:09:30;15.90;97.10
16273;DHT22;8244;50.044;9.006;2022-07-06T03:14:31;15.80;98.00
16273;DHT22;8244;50.044;9.006;2022-07-06T03:19:33;15.80;98.90
16273;DHT22;8244;50.044;9.006;2022-07-06T03:24:36;15.70;99.80
16273;DHT22;8244;50.044;9.006;2022-07-06T03:29:38;15.60;99.90
16273;DHT22;8244;50.044;9.006;2022-07-06T03:34:40;15.60;99.90
16273;DHT22;8244;50.044;9.006;2022-07-06T03:39:43;15.50;99.90
16273;DHT22;8244;50.044;9.006;2022-07-06T03:44:44;15.40;99.90
16273;DHT22;8244;50.044;9.006;2022-07-06T03:49:46;15.40;99.90
16273;DHT22;8244;50.044;9.006;2022-07-06T03:54:49;15.30;99.90
16273;DHT22;8244;50.044;9.006;2022-07-06T03:59:51;15.20;99.90
16273;DHT22;8244;50.044;9.006;2022-07-06T04:04:52;15.30;99.90
16273;DHT22;8244;50.044;9.006;2022-07-06T04:09:56;15.20;99.90
16273;DHT22;8244;50.044;9.006;2022-07-06T04:14:57;15.20;99.90
16273;DHT22;8244;50.044;9.006;2022-07-06T04:19:59;15.30;99.90
16273;DHT22;8244;50.044;9.006;2022-07-06T04:25:03;15.30;99.90
16273;DHT22;8244;50.044;9.006;2022-07-06T04:30:06;15.40;99.90
16273;DHT22;8244;50.044;9.006;2022-07-06T04:35:09;15.40;99.90
16273;DHT22;8244;50.044;9.006;2022-07-06T04:40:12;15.60;99.90
16273;DHT22;8244;50.044;9.006;2022-07-06T04:45:14;15.70;99.90
16273;DHT22;8244;50.044;9.006;2022-07-06T04:50:16;16.00;99.90
16273;DHT22;8244;50.044;9.006;2022-07-06T04:55:19;16.40;99.90
16273;DHT22;8244;50.044;9.006;2022-07-06T05:00:21;16.80;99.90
16273;DHT22;8244;50.044;9.006;2022-07-06T05:05:23;17.30;99.90
16273;DHT22;8244;50.044;9.006;2022-07-06T05:10:26;18.00;99.90
16273;DHT22;8244;50.044;9.006;2022-07-06T05:15:28;18.60;99.90
16273;DHT22;8244;50.044;9.006;2022-07-06T05:20:30;19.00;99.90
16273;DHT22;8244;50.044;9.006;2022-07-06T05:25:33;19.30;99.90
16273;DHT22;8244;50.044;9.006;2022-07-06T05:30:36;19.20;99.90
16273;DHT22;8244;50.044;9.006;2022-07-06T05:35:37;19.00;99.90
16273;DHT22;8244;50.044;9.006;2022-07-06T05:40:41;18.80;99.90
16273;DHT22;8244;50.044;9.006;2022-07-06T05:45:42;18.70;99.90
16273;DHT22;8244;50.044;9.006;2022-07-06T05:50:44;18.90;99.90
16273;DHT22;8244;50.044;9.006;2022-07-06T05:55:47;19.00;99.90
16273;DHT22;8244;50.044;9.006;2022-07-06T06:00:49;19.20;99.70
16273;DHT22;8244;50.044;9.006;2022-07-06T06:05:51;19.30;99.80
16273;DHT22;8244;50.044;9.006;2022-07-06T06:10:54;19.20;99.60
16273;DHT22;8244;50.044;9.006;2022-07-06T06:15:55;19.60;99.40
16273;DHT22;8244;50.044;9.006;2022-07-06T06:20:57;20.30;98.20
16273;DHT22;8244;50.044;9.006;2022-07-06T06:26:00;21.10;96.10
16273;DHT22;8244;50.044;9.006;2022-07-06T06:31:02;21.50;94.40
16273;DHT22;8244;50.044;9.006;2022-07-06T06:36:04;21.60;92.80
16273;DHT22;8244;50.044;9.006;2022-07-06T06:41:07;21.60;93.10
16273;DHT22;8244;50.044;9.006;2022-07-06T06:46:09;22.00;92.60
16273;DHT22;8244;50.044;9.006;2022-07-06T06:51:11;22.80;90.40
16273;DHT22;8244;50.044;9.006;2022-07-06T06:56:14;23.00;90.50
16273;DHT22;8244;50.044;9.006;2022-07-06T07:01:15;23.80;89.30
16273;DHT22;8244;50.044;9.006;2022-07-06T07:06:17;24.10;86.00
16273;DHT22;8244;50.044;9.006;2022-07-06T07:11:20;24.00;85.30
16273;DHT22;8244;50.044;9.006;2022-07-06T07:16:22;24.10;84.50
16273;DHT22;8244;50.044;9.006;2022-07-06T07:21:25;24.10;84.30
16273;DHT22;8244;50.044;9.006;2022-07-06T07:26:28;24.10;84.20
16273;DHT22;8244;50.044;9.006;2022-07-06T07:31:30;24.40;82.80
16273;DHT22;8244;50.044;9.006;2022-07-06T07:36:32;24.70;81.30
16273;DHT22;8244;50.044;9.006;2022-07-06T07:41:35;24.90;79.30
16273;DHT22;8244;50.044;9.006;2022-07-06T07:46:36;24.90;78.90
16273;DHT22;8244;50.044;9.006;2022-07-06T07:51:38;24.90;78.30
16273;DHT22;8244;50.044;9.006;2022-07-06T07:56:43;25.00;77.50
16273;DHT22;8244;50.044;9.006;2022-07-06T08:01:45;25.30;76.60
16273;DHT22;8244;50.044;9.006;2022-07-06T08:06:47;25.30;77.10
16273;DHT22;8244;50.044;9.006;2022-07-06T08:11:50;25.20;77.60
16273;DHT22;8244;50.044;9.006;2022-07-06T08:16:52;25.50;77.80
16273;DHT22;8244;50.044;9.006;2022-07-06T08:21:53;25.80;76.30
16273;DHT22;8244;50.044;9.006;2022-07-06T08:26:56;25.90;73.50
16273;DHT22;8244;50.044;9.006;2022-07-06T08:31:58;26.00;74.10
16273;DHT22;8244;50.044;9.006;2022-07-06T08:37:00;26.00;74.10
16273;DHT22;8244;50.044;9.006;2022-07-06T08:42:04;26.20;72.80
16273;DHT22;8244;50.044;9.006;2022-07-06T08:47:07;26.80;73.10
16273;DHT22;8244;50.044;9.006;2022-07-06T08:52:09;27.60;71.50
16273;DHT22;8244;50.044;9.006;2022-07-06T08:57:12;28.00;69.70
16273;DHT22;8244;50.044;9.006;2022-07-06T09:02:15;28.20;71.80
16273;DHT22;8244;50.044;9.006;2022-07-06T09:07:17;28.90;66.50
16273;DHT22;8244;50.044;9.006;2022-07-06T09:12:21;29.60;66.80
16273;DHT22;8244;50.044;9.006;2022-07-06T09:17:25;30.00;65.50
16273;DHT22;8244;50.044;9.006;2022-07-06T09:22:30;30.20;65.50
16273;DHT22;8244;50.044;9.006;2022-07-06T09:27:36;30.30;64.30
16273;DHT22;8244;50.044;9.006;2022-07-06T09:32:39;30.70;60.90
16273;DHT22;8244;50.044;9.006;2022-07-06T09:37:41;30.40;61.50
16273;DHT22;8244;50.044;9.006;2022-07-06T09:42:44;30.50;62.80
16273;DHT22;8244;50.044;9.006;2022-07-06T09:47:47;31.60;60.40
16273;DHT22;8244;50.044;9.006;2022-07-06T09:52:53;32.00;58.30
16273;DHT22;8244;50.044;9.006;2022-07-06T09:57:57;31.70;60.00
16273;DHT22;8244;50.044;9.006;2022-07-06T10:03:00;31.50;59.70
16273;DHT22;8244;50.044;9.006;2022-07-06T10:08:02;31.90;59.90
16273;DHT22;8244;50.044;9.006;2022-07-06T10:13:08;32.40;57.50
16273;DHT22;8244;50.044;9.006;2022-07-06T10:18:10;32.00;57.30
16273;DHT22;8244;50.044;9.006;2022-07-06T10:23:12;32.00;56.70
16273;DHT22;8244;50.044;9.006;2022-07-06T10:28:16;32.20;58.20
16273;DHT22;8244;50.044;9.006;2022-07-06T10:33:19;32.60;54.90
16273;DHT22;8244;50.044;9.006;2022-07-06T10:38:30;32.80;57.00
16273;DHT22;8244;50.044;9.006;2022-07-06T10:43:36;33.00;55.60
16273;DHT22;8244;50.044;9.006;2022-07-06T10:48:39;33.20;56.00
16273;DHT22;8244;50.044;9.006;2022-07-06T10:53:41;33.20;55.20
16273;DHT22;8244;50.044;9.006;2022-07-06T10:58:50;33.60;55.70
16273;DHT22;8244;50.044;9.006;2022-07-06T11:04:05;34.20;53.30
16273;DHT22;8244;50.044;9.006;2022-07-06T11:09:08;34.60;50.90
16273;DHT22;8244;50.044;9.006;2022-07-06T11:14:12;34.20;52.40
16273;DHT22;8244;50.044;9.006;2022-07-06T11:19:16;34.20;53.90
16273;DHT22;8244;50.044;9.006;2022-07-06T11:24:20;34.10;53.10
16273;DHT22;8244;50.044;9.006;2022-07-06T11:29:25;34.10;54.80
16273;DHT22;8244;50.044;9.006;2022-07-06T11:34:28;34.60;53.90
16273;DHT22;8244;50.044;9.006;2022-07-06T11:39:31;34.80;50.10
16273;DHT22;8244;50.044;9.006;2022-07-06T11:44:35;34.10;50.30
16273;DHT22;8244;50.044;9.006;2022-07-06T11:49:39;33.50;52.90
16273;DHT22;8244;50.044;9.006;2022-07-06T11:54:41;34.00;52.90
16273;DHT22;8244;50.044;9.006;2022-07-06T11:59:45;33.80;52.30
16273;DHT22;8244;50.044;9.006;2022-07-06T12:04:48;33.00;53.30
16273;DHT22;8244;50.044;9.006;2022-07-06T12:09:50;33.00;54.10
16273;DHT22;8244;50.044;9.006;2022-07-06T12:14:53;33.30;52.10
16273;DHT22;8244;50.044;9.006;2022-07-06T12:19:55;33.10;52.10
16273;DHT22;8244;50.044;9.006;2022-07-06T12:24:58;32.80;53.80
16273;DHT22;8244;50.044;9.006;2022-07-06T12:30:09;33.60;52.60
16273;DHT22;8244;50.044;9.006;2022-07-06T12:35:12;34.30;50.30
16273;DHT22;8244;50.044;9.006;2022-07-06T12:40:15;34.10;48.70
16273;DHT22;8244;50.044;9.006;2022-07-06T12:45:18;34.00;49.80
16273;DHT22;8244;50.044;9.006;2022-07-06T12:50:20;34.00;50.40
16273;DHT22;8244;50.044;9.006;2022-07-06T12:55:31;33.90;49.50
16273;DHT22;8244;50.044;9.006;2022-07-06T13:00:45;34.00;49.50
16273;DHT22;8244;50.044;9.006;2022-07-06T13:05:49;34.00;48.70
16273;DHT22;8244;50.044;9.006;2022-07-06T13:10:51;34.10;48.10
16273;DHT22;8244;50.044;9.006;2022-07-06T13:15:54;34.20;48.40
16273;DHT22;8244;50.044;9.006;2022-07-06T13:20:56;34.20;49.50
16273;DHT22;8244;50.044;9.006;2022-07-06T13:25:58;34.60;48.50
16273;DHT22;8244;50.044;9.006;2022-07-06T13:31:01;34.70;48.00
16273;DHT22;8244;50.044;9.006;2022-07-06T13:36:03;34.70;47.00
16273;DHT22;8244;50.044;9.006;2022-07-06T13:41:04;34.70;48.10
16273;DHT22;8244;50.044;9.006;2022-07-06T13:46:08;34.70;46.10
16273;DHT22;8244;50.044;9.006;2022-07-06T13:51:11;34.60;48.40
16273;DHT22;8244;50.044;9.006;2022-07-06T13:56:12;34.80;46.90
16273;DHT22;8244;50.044;9.006;2022-07-06T14:01:15;34.90;47.20
16273;DHT22;8244;50.044;9.006;2022-07-06T14:06:19;35.00;46.70
16273;DHT22;8244;50.044;9.006;2022-07-06T14:11:20;34.50;47.00
16273;DHT22;8244;50.044;9.006;2022-07-06T14:16:24;33.80;46.10
16273;DHT22;8244;50.044;9.006;2022-07-06T14:21:25;33.20;46.40
16273;DHT22;8244;50.044;9.006;2022-07-06T14:26:27;33.00;48.50
16273;DHT22;8244;50.044;9.006;2022-07-06T14:31:30;32.80;46.60
16273;DHT22;8244;50.044;9.006;2022-07-06T14:36:32;32.40;47.80
16273;DHT22;8244;50.044;9.006;2022-07-06T14:41:34;32.20;47.80
16273;DHT22;8244;50.044;9.006;2022-07-06T14:46:38;32.30;48.80
16273;DHT22;8244;50.044;9.006;2022-07-06T14:51:39;32.40;47.40
16273;DHT22;8244;50.044;9.006;2022-07-06T14:56:41;32.40;48.10
16273;DHT22;8244;50.044;9.006;2022-07-06T15:01:44;32.30;49.60
16273;DHT22;8244;50.044;9.006;2022-07-06T15:06:46;32.10;49.10
16273;DHT22;8244;50.044;9.006;2022-07-06T15:11:48;31.80;48.80
16273;DHT22;8244;50.044;9.006;2022-07-06T15:16:52;31.50;49.80
16273;DHT22;8244;50.044;9.006;2022-07-06T15:21:53;31.20;50.30
16273;DHT22;8244;50.044;9.006;2022-07-06T15:26:55;30.60;50.80
16273;DHT22;8244;50.044;9.006;2022-07-06T15:31:59;29.90;51.90
16273;DHT22;8244;50.044;9.006;2022-07-06T15:37:00;29.50;52.70
16273;DHT22;8244;50.044;9.006;2022-07-06T15:42:04;29.10;52.60
16273;DHT22;8244;50.044;9.006;2022-07-06T15:47:07;28.70;55.20
16273;DHT22;8244;50.044;9.006;2022-07-06T15:52:09;28.60;54.30
16273;DHT22;8244;50.044;9.006;2022-07-06T15:57:11;28.50;55.00
16273;DHT22;8244;50.044;9.006;2022-07-06T16:02:14;28.20;55.20
16273;DHT22;8244;50.044;9.006;2022-07-06T16:07:16;28.00;55.30
16273;DHT22;8244;50.044;9.006;2022-07-06T16:12:18;27.90;54.50
16273;DHT22;8244;50.044;9.006;2022-07-06T16:17:21;28.00;55.80
16273;DHT22;8244;50.044;9.006;2022-07-06T16:22:22;28.20;54.70
16273;DHT22;8244;50.044;9.006;2022-07-06T16:27:25;28.10;55.20
16273;DHT22;8244;50.044;9.006;2022-07-06T16:32:28;28.00;55.10
16273;DHT22;8244;50.044;9.006;2022-07-06T16:37:30;27.90;55.60
16273;DHT22;8244;50.044;9.006;2022-07-06T16:42:32;27.80;55.40
16273;DHT22;8244;50.044;9.006;2022-07-06T16:47:35;27.70;55.90
16273;DHT22;8244;50.044;9.006;2022-07-06T16:52:38;27.60;55.90
16273;DHT22;8244;50.044;9.006;2022-07-06T16:57:40;27.50;56.50
16273;DHT22;8244;50.044;9.006;2022-07-06T17:02:44;27.30;56.70
16273;DHT22;8244;50.044;9.006;2022-07-06T17:07:46;27.10;57.20
16273;DHT22;8244;50.044;9.006;2022-07-06T17:12:48;27.00;57.00
16273;DHT22;8244;50.044;9.006;2022-07-06T17:17:51;26.80;57.60
16273;DHT22;8244;50.044;9.006;2022-07-06T17:22:54;26.60;57.40
16273;DHT22;8244;50.044;9.006;2022-07-06T17:27:57;26.40;58.40
16273;DHT22;8244;50.044;9.006;2022-07-06T17:33:00;26.10;58.00
16273;DHT22;8244;50.044;9.006;2022-07-06T17:38:01;25.70;59.10
16273;DHT22;8244;50.044;9.006;2022-07-06T17:43:04;25.80;59.20
16273;DHT22;8244;50.044;9.006;2022-07-06T17:48:07;25.60;59.30
16273;DHT22;8244;50.044;9.006;2022-07-06T17:53:09;25.30;59.50
16273;DHT22;8244;50.044;9.006;2022-07-06T17:58:10;25.20;59.70
16273;DHT22;8244;50.044;9.006;2022-07-06T18:03:16;25.00;60.10
16273;DHT22;8244;50.044;9.006;2022-07-06T18:08:17;25.00;60.40
16273;DHT22;8244;50.044;9.006;2022-07-06T18:13:19;24.70;61.10
16273;DHT22;8244;50.044;9.006;2022-07-06T18:18:22;24.50;61.50
16273;DHT22;8244;50.044;9.006;2022-07-06T18:23:26;24.30;62.30
16273;DHT22;8244;50.044;9.006;2022-07-06T18:28:28;24.10;62.50
16273;DHT22;8244;50.044;9.006;2022-07-06T18:33:31;24.00;62.70
16273;DHT22;8244;50.044;9.006;2022-07-06T18:38:35;23.80;63.20
16273;DHT22;8244;50.044;9.006;2022-07-06T18:43:37;23.70;63.50
16273;DHT22;8244;50.044;9.006;2022-07-06T18:48:40;23.50;64.20
16273;DHT22;8244;50.044;9.006;2022-07-06T18:53:42;23.40;64.20
16273;DHT22;8244;50.044;9.006;2022-07-06T18:58:44;23.20;64.80
16273;DHT22;8244;50.044;9.006;2022-07-06T19:03:50;23.00;65.50
16273;DHT22;8244;50.044;9.006;2022-07-06T19:08:52;22.90;66.00
16273;DHT22;8244;50.044;9.006;2022-07-06T19:13:53;22.60;66.80
16273;DHT22;8244;50.044;9.006;2022-07-06T19:18:56;22.40;67.50
16273;DHT22;8244;50.044;9.006;2022-07-06T19:23:58;22.20;68.30
16273;DHT22;8244;50.044;9.006;2022-07-06T19:29:00;21.90;69.20
16273;DHT22;8244;50.044;9.006;2022-07-06T19:34:03;21.80;70.10
16273;DHT22;8244;50.044;9.006;2022-07-06T19:39:05;21.60;70.40
16273;DHT22;8244;50.044;9.006;2022-07-06T19:44:07;21.40;71.20
16273;DHT22;8244;50.044;9.006;2022-07-06T19:49:12;21.20;71.50
16273;DHT22;8244;50.044;9.006;2022-07-06T19:54:14;21.00;72.10
16273;DHT22;8244;50.044;9.006;2022-07-06T19:59:16;20.80;72.70
16273;DHT22;8244;50.044;9.006;2022-07-06T20:04:19;20.70;73.20
16273;DHT22;8244;50.044;9.006;2022-07-06T20:09:21;20.50;73.90
16273;DHT22;8244;50.044;9.006;2022-07-06T20:14:22;20.30;74.30
16273;DHT22;8244;50.044;9.006;2022-07-06T20:19:26;20.20;74.90
16273;DHT22;8244;50.044;9.006;2022-07-06T20:24:27;20.00;75.50
16273;DHT22;8244;50.044;9.006;2022-07-06T20:29:29;19.80;75.70
16273;DHT22;8244;50.044;9.006;2022-07-06T20:34:32;19.70;76.20
16273;DHT22;8244;50.044;9.006;2022-07-06T20:39:34;19.60;76.80
16273;DHT22;8244;50.044;9.006;2022-07-06T20:44:36;19.40;77.50
16273;DHT22;8244;50.044;9.006;2022-07-06T20:49:39;19.30;78.00
16273;DHT22;8244;50.044;9.006;2022-07-06T20:54:41;19.20;79.00
16273;DHT22;8244;50.044;9.006;2022-07-06T20:59:42;19.10;80.30
16273;DHT22;8244;50.044;9.006;2022-07-06T21:04:46;19.00;80.60
16273;DHT22;8244;50.044;9.006;2022-07-06T21:09:47;18.80;82.80
16273;DHT22;8244;50.044;9.006;2022-07-06T21:14:49;18.70;82.00
16273;DHT22;8244;50.044;9.006;2022-07-06T21:19:52;18.50;81.80
16273;DHT22;8244;50.044;9.006;2022-07-06T21:24:54;18.40;82.00
16273;DHT22;8244;50.044;9.006;2022-07-06T21:29:56;18.30;83.40
16273;DHT22;8244;50.044;9.006;2022-07-06T21:34:59;18.20;82.80
16273;DHT22;8244;50.044;9.006;2022-07-06T21:40:00;18.10;83.70
16273;DHT22;8244;50.044;9.006;2022-07-06T21:45:03;18.00;83.50
16273;DHT22;8244;50.044;9.006;2022-07-06T21:50:07;18.00;85.20
16273;DHT22;8244;50.044;9.006;2022-07-06T21:55:09;17.90;86.30
16273;DHT22;8244;50.044;9.006;2022-07-06T22:00:12;17.90;86.10
16273;DHT22;8244;50.044;9.006;2022-07-06T22:05:16;17.80;86.90
16273;DHT22;8244;50.044;9.006;2022-07-06T22:10:17;17.80;86.80
16273;DHT22;8244;50.044;9.006;2022-07-06T22:15:19;17.70;88.00
16273;DHT22;8244;50.044;9.006;2022-07-06T22:20:23;17.70;88.10
16273;DHT22;8244;50.044;9.006;2022-07-06T22:25:25;17.70;87.60
16273;DHT22;8244;50.044;9.006;2022-07-06T22:30:27;17.70;89.00
16273;DHT22;8244;50.044;9.006;2022-07-06T22:35:30;17.60;90.60
16273;DHT22;8244;50.044;9.006;2022-07-06T22:40:32;17.70;89.60
16273;DHT22;8244;50.044;9.006;2022-07-06T22:45:51;17.60;90.40
16273;DHT22;8244;50.044;9.006;2022-07-06T22:50:54;17.60;90.10
16273;DHT22;8244;50.044;9.006;2022-07-06T22:55:57;17.60;90.20
16273;DHT22;8244;50.044;9.006;2022-07-06T23:00:59;17.60;90.70
16273;DHT22;8244;50.044;9.006;2022-07-06T23:06:02;17.50;90.30
16273;DHT22;8244;50.044;9.006;2022-07-06T23:11:04;17.50;90.00
16273;DHT22;8244;50.044;9.006;2022-07-06T23:16:06;17.50;89.10
16273;DHT22;8244;50.044;9.006;2022-07-06T23:21:09;17.50;88.80
16273;DHT22;8244;50.044;9.006;2022-07-06T23:26:11;17.40;89.50
16273;DHT22;8244;50.044;9.006;2022-07-06T23:31:12;17.40;89.30
16273;DHT22;8244;50.044;9.006;2022-07-06T23:36:15;17.40;89.70
16273;DHT22;8244;50.044;9.006;2022-07-06T23:41:19;17.40;90.30
16273;DHT22;8244;50.044;9.006;2022-07-06T23:46:21;17.30;90.60
16273;DHT22;8244;50.044;9.006;2022-07-06T23:51:24;17.30;91.20
16273;DHT22;8244;50.044;9.006;2022-07-06T23:56:28;17.20;91.60
